Time;durP1;ratioP1;P1;durP2;ratioP2;P2;SDS_P1;SDS_P2;PMS_P1;PMS_P2;Temp;Humidity;BMP_temperature;BMP_pressure;BME280_temperature;BME280_humidity;BME280_pressure;Samples;Min_cycle;Max_cycle;Signal;HPM_P1;HPM_P2
2024/02/17 00:00:45;;;;;;;492.98;195.02;;;6.00;92.80;;;;;;5007838;28;113638;-54
2024/02/17 00:03:12;;;;;;;411.95;183.88;;;6.10;92.80;;;;;;5012802;27;113810;-54
2024/02/17 00:05:39;;;;;;;342.63;162.93;;;6.20;92.80;;;;;;5011634;28;112770;-54
2024/02/17 00:08:05;;;;;;;404.08;174.30;;;6.30;92.80;;;;;;5017967;28;112738;-54
2024/02/17 00:10:31;;;;;;;303.15;161.70;;;6.20;92.60;;;;;;5014187;28;113100;-54
2024/02/17 00:12:56;;;;;;;272.17;159.00;;;6.40;92.70;;;;;;5013705;28;112593;-54
2024/02/17 00:15:22;;;;;;;255.73;151.98;;;6.40;92.60;;;;;;5011118;28;112892;-54
2024/02/17 00:17:48;;;;;;;397.83;169.55;;;6.40;92.50;;;;;;5012915;28;113126;-54
2024/02/17 00:20:17;;;;;;;417.33;157.45;;;6.40;92.40;;;;;;5014210;28;113085;-54
2024/02/17 00:22:43;;;;;;;639.13;185.57;;;6.40;92.40;;;;;;5009759;28;112720;-54
2024/02/17 00:25:09;;;;;;;361.10;163.30;;;6.30;92.20;;;;;;5020451;28;112632;-54
2024/02/17 00:27:35;;;;;;;236.15;136.60;;;6.30;92.10;;;;;;5011114;28;113034;-54
2024/02/17 00:30:01;;;;;;;187.02;125.38;;;6.60;92.20;;;;;;5017167;28;115122;-54
2024/02/17 00:32:27;;;;;;;250.73;135.90;;;6.70;91.60;;;;;;5012795;28;114080;-54
2024/02/17 00:34:53;;;;;;;264.65;134.35;;;6.70;91.10;;;;;;5010877;28;112855;-54
2024/02/17 00:37:18;;;;;;;414.90;139.05;;;6.60;90.90;;;;;;5005216;28;112662;-54
2024/02/17 00:39:44;;;;;;;560.47;160.20;;;6.40;90.40;;;;;;5004334;28;113256;-54
2024/02/17 00:42:10;;;;;;;339.08;138.98;;;6.40;91.10;;;;;;5015960;28;113275;-54
2024/02/17 00:44:35;;;;;;;228.70;133.13;;;6.40;90.70;;;;;;5025151;28;112541;-54
2024/02/17 00:47:02;;;;;;;195.68;125.53;;;6.40;91.30;;;;;;5024177;28;112960;-54
2024/02/17 00:49:28;;;;;;;257.25;131.90;;;6.40;91.10;;;;;;5023957;28;114394;-54
2024/02/17 00:51:54;;;;;;;267.35;134.13;;;6.40;90.40;;;;;;5022856;28;115564;-54
2024/02/17 00:54:19;;;;;;;376.98;137.95;;;6.30;91.10;;;;;;5025195;27;112516;-54
2024/02/17 00:56:45;;;;;;;259.52;140.25;;;6.30;91.10;;;;;;5025037;28;112710;-54
2024/02/17 00:59:11;;;;;;;286.10;139.90;;;6.30;91.40;;;;;;5024407;28;113548;-54
2024/02/17 01:01:36;;;;;;;194.60;124.05;;;6.30;91.50;;;;;;5023844;27;112601;-54
2024/02/17 01:04:02;;;;;;;212.73;120.78;;;6.30;91.50;;;;;;5025340;28;112648;-54
2024/02/17 01:06:28;;;;;;;186.45;118.45;;;6.40;91.30;;;;;;5025231;28;113090;-54
2024/02/17 01:08:54;;;;;;;186.65;123.60;;;6.50;90.80;;;;;;5023741;28;113358;-54
2024/02/17 01:11:20;;;;;;;254.75;122.90;;;6.40;91.20;;;;;;5024309;28;112670;-54
2024/02/17 01:13:46;;;;;;;260.52;132.80;;;6.40;90.60;;;;;;5024745;27;112607;-54
2024/02/17 01:16:12;;;;;;;203.27;125.47;;;6.40;90.40;;;;;;5025756;27;112714;-54
2024/02/17 01:18:37;;;;;;;275.10;130.88;;;6.40;90.60;;;;;;5027408;28;113375;-54
2024/02/17 01:21:03;;;;;;;235.25;129.10;;;6.40;90.80;;;;;;5027305;28;112626;-54
2024/02/17 01:23:29;;;;;;;260.00;137.85;;;6.30;90.90;;;;;;5028187;28;112893;-55
2024/02/17 01:25:55;;;;;;;216.93;131.68;;;6.40;91.20;;;;;;5028302;28;113850;-55
2024/02/17 01:28:21;;;;;;;265.25;135.10;;;6.30;91.40;;;;;;5027494;28;113305;-54
2024/02/17 01:30:47;;;;;;;163.45;117.97;;;6.20;91.00;;;;;;5027046;28;112590;-55
2024/02/17 01:33:12;;;;;;;196.88;123.85;;;6.30;91.00;;;;;;5028556;28;112815;-55
2024/02/17 01:35:38;;;;;;;203.20;124.50;;;6.30;91.30;;;;;;5024634;28;112911;-54
2024/02/17 01:38:07;;;;;;;273.02;129.23;;;6.30;91.10;;;;;;5016403;28;114286;-54
2024/02/17 01:40:33;;;;;;;187.30;122.10;;;6.20;91.00;;;;;;5014906;28;112826;-54
2024/02/17 01:43:00;;;;;;;201.00;116.15;;;6.20;91.40;;;;;;5025819;28;112742;-55
2024/02/17 01:45:26;;;;;;;176.65;116.03;;;6.00;90.30;;;;;;5028144;27;112855;-55
2024/02/17 01:47:54;;;;;;;189.90;118.53;;;6.00;90.20;;;;;;5027096;27;113608;-54
2024/02/17 01:50:20;;;;;;;270.25;125.85;;;5.90;89.90;;;;;;5026794;27;112847;-54
2024/02/17 01:52:46;;;;;;;271.98;139.60;;;5.90;90.10;;;;;;5027728;28;112917;-55
2024/02/17 01:55:13;;;;;;;246.20;121.22;;;5.80;90.70;;;;;;5027912;28;112761;-54
2024/02/17 01:57:39;;;;;;;264.85;123.03;;;5.80;90.10;;;;;;5026527;28;114546;-55
2024/02/17 02:00:07;;;;;;;170.43;113.25;;;5.80;89.40;;;;;;5026764;28;112721;-54
2024/02/17 02:02:33;;;;;;;176.18;113.20;;;5.80;89.70;;;;;;5027718;28;112430;-54
2024/02/17 02:04:59;;;;;;;265.23;118.38;;;5.90;89.20;;;;;;5027629;27;112901;-54
2024/02/17 02:07:25;;;;;;;596.50;144.15;;;5.80;89.60;;;;;;5027210;28;113558;-54
2024/02/17 02:09:51;;;;;;;308.17;139.25;;;5.70;90.00;;;;;;5024872;28;114575;-55
2024/02/17 02:12:18;;;;;;;422.35;145.20;;;5.70;90.70;;;;;;5027548;28;112613;-55
2024/02/17 02:14:43;;;;;;;417.63;154.27;;;5.70;91.20;;;;;;5027449;28;112822;-54
2024/02/17 02:17:09;;;;;;;309.05;138.93;;;5.70;91.00;;;;;;5026952;28;113687;-54
2024/02/17 02:19:35;;;;;;;326.48;138.07;;;5.70;91.10;;;;;;5026723;28;112745;-54
2024/02/17 02:22:00;;;;;;;239.75;129.90;;;5.70;91.00;;;;;;5027391;28;112574;-54
2024/02/17 02:24:26;;;;;;;267.27;127.10;;;5.70;91.00;;;;;;5027576;28;112797;-54
2024/02/17 02:26:52;;;;;;;246.13;124.30;;;5.70;90.90;;;;;;5026361;28;113222;-54
2024/02/17 02:29:18;;;;;;;316.30;133.70;;;5.80;91.10;;;;;;5026479;28;112700;-54
2024/02/17 02:31:43;;;;;;;224.60;126.55;;;5.70;90.80;;;;;;5027392;28;112616;-55
2024/02/17 02:34:09;;;;;;;224.98;123.20;;;5.70;90.80;;;;;;5013804;28;115587;-54
2024/02/17 02:36:35;;;;;;;222.10;121.78;;;5.70;90.90;;;;;;5026498;28;113267;-54
2024/02/17 02:39:00;;;;;;;146.13;111.15;;;5.70;90.50;;;;;;5024638;28;114006;-55
2024/02/17 02:41:26;;;;;;;191.20;122.25;;;5.80;90.00;;;;;;5012809;28;112951;-54
2024/02/17 02:43:52;;;;;;;220.95;130.48;;;5.80;89.80;;;;;;5027065;27;113209;-54
2024/02/17 02:46:17;;;;;;;280.35;126.72;;;5.80;90.30;;;;;;5026031;28;114062;-54
2024/02/17 02:48:43;;;;;;;281.35;133.73;;;5.60;90.70;;;;;;5026217;28;112634;-54
2024/02/17 02:51:09;;;;;;;293.17;135.88;;;5.60;91.40;;;;;;5026731;28;112603;-54
2024/02/17 02:53:34;;;;;;;252.93;140.52;;;5.50;91.60;;;;;;5026946;28;113002;-54
2024/02/17 02:56:01;;;;;;;223.85;130.50;;;5.40;91.80;;;;;;5025851;27;114598;-55
2024/02/17 02:58:27;;;;;;;219.20;124.70;;;5.50;91.50;;;;;;5025687;28;113696;-54
2024/02/17 03:00:52;;;;;;;285.58;128.68;;;5.50;91.10;;;;;;5026803;28;112469;-54
2024/02/17 03:03:18;;;;;;;324.55;131.35;;;5.40;90.80;;;;;;5026749;27;112703;-54
2024/02/17 03:05:44;;;;;;;471.30;142.35;;;5.30;90.60;;;;;;5024197;28;115261;-54
2024/02/17 03:08:10;;;;;;;200.32;123.00;;;5.40;90.60;;;;;;5025242;27;112816;-54
2024/02/17 03:10:35;;;;;;;162.05;112.57;;;5.40;90.50;;;;;;5026720;28;112662;-54
2024/02/17 03:13:01;;;;;;;187.50;117.85;;;5.50;90.60;;;;;;5026838;28;112690;-55
2024/02/17 03:15:27;;;;;;;179.98;116.82;;;5.60;90.10;;;;;;5024773;28;113205;-54
2024/02/17 03:17:53;;;;;;;209.65;115.00;;;5.60;90.00;;;;;;5002823;28;115224;-55
2024/02/17 03:20:19;;;;;;;303.08;121.85;;;5.60;89.90;;;;;;5006192;28;112522;-54
2024/02/17 03:22:45;;;;;;;194.68;117.68;;;5.60;89.60;;;;;;5004944;28;112816;-54
2024/02/17 03:25:11;;;;;;;216.75;113.88;;;5.60;89.60;;;;;;5005237;28;113156;-54
2024/02/17 03:27:37;;;;;;;183.35;113.75;;;5.60;89.80;;;;;;5005534;28;113001;-54
2024/02/17 03:30:05;;;;;;;123.32;101.15;;;5.70;89.50;;;;;;5006159;28;112638;-54
2024/02/17 03:32:32;;;;;;;112.63;98.60;;;5.80;89.40;;;;;;5006205;28;112877;-54
2024/02/17 03:34:58;;;;;;;158.63;107.45;;;6.00;88.60;;;;;;5006704;28;113353;-54
2024/02/17 03:37:25;;;;;;;161.23;105.10;;;5.90;88.50;;;;;;5005241;28;112909;-54
2024/02/17 03:39:51;;;;;;;165.52;102.43;;;5.90;89.30;;;;;;5005436;28;112653;-54
2024/02/17 03:42:17;;;;;;;230.98;111.72;;;5.80;88.90;;;;;;5006103;28;112668;-55
2024/02/17 03:44:43;;;;;;;186.80;110.68;;;5.70;88.70;;;;;;5005279;28;113506;-55
2024/02/17 03:47:11;;;;;;;193.20;113.70;;;5.70;89.60;;;;;;5005216;28;113511;-53
2024/02/17 03:49:37;;;;;;;200.57;114.50;;;5.70;89.40;;;;;;5006030;28;112735;-54
2024/02/17 03:52:03;;;;;;;164.38;109.82;;;5.80;89.60;;;;;;5004360;28;112897;-53
2024/02/17 03:54:29;;;;;;;189.15;118.03;;;5.80;89.40;;;;;;5004658;28;113265;-55
2024/02/17 03:56:55;;;;;;;227.73;116.72;;;5.80;89.40;;;;;;5005151;28;112538;-53
2024/02/17 03:59:20;;;;;;;153.57;114.53;;;5.70;89.70;;;;;;5005692;28;112864;-53
2024/02/17 04:01:47;;;;;;;175.75;115.22;;;5.70;90.10;;;;;;5005686;28;112790;-53
2024/02/17 04:04:12;;;;;;;146.75;110.32;;;5.80;89.90;;;;;;5004826;28;113300;-53
2024/02/17 04:06:38;;;;;;;126.90;106.72;;;5.80;90.10;;;;;;5004952;28;112766;-54
2024/02/17 04:09:06;;;;;;;221.02;115.82;;;5.90;89.70;;;;;;5004815;28;113143;-53
2024/02/17 04:11:32;;;;;;;178.23;107.50;;;6.00;88.70;;;;;;5005467;28;113238;-53
2024/02/17 04:13:58;;;;;;;150.20;108.55;;;5.90;89.20;;;;;;5004519;28;114113;-54
2024/02/17 04:16:23;;;;;;;137.27;104.72;;;5.90;89.20;;;;;;5004639;28;112604;-53
2024/02/17 04:18:49;;;;;;;232.30;116.15;;;5.90;89.00;;;;;;5005854;28;113147;-54
2024/02/17 04:21:15;;;;;;;240.60;122.72;;;6.00;89.10;;;;;;5005350;28;112806;-53
2024/02/17 04:23:43;;;;;;;131.90;107.20;;;5.90;89.30;;;;;;5004352;28;114526;-54
2024/02/17 04:26:09;;;;;;;154.63;112.47;;;6.00;90.10;;;;;;5002889;28;113018;-53
2024/02/17 04:28:36;;;;;;;133.23;103.10;;;6.00;89.70;;;;;;5005710;28;112965;-53
2024/02/17 04:31:05;;;;;;;136.68;106.28;;;6.10;89.20;;;;;;5005338;28;112729;-53
2024/02/17 04:33:31;;;;;;;205.93;116.97;;;6.30;88.50;;;;;;5003416;28;116132;-54
2024/02/17 04:35:56;;;;;;;228.55;124.72;;;6.10;88.80;;;;;;5004455;28;112777;-54
2024/02/17 04:38:22;;;;;;;181.40;118.72;;;6.10;89.40;;;;;;5005494;28;112492;-53
2024/02/17 04:40:48;;;;;;;186.02;117.03;;;6.10;89.60;;;;;;5005350;28;112736;-54
2024/02/17 04:43:13;;;;;;;147.90;114.40;;;6.00;89.40;;;;;;5004314;28;113358;-54
2024/02/17 04:45:39;;;;;;;171.35;114.28;;;6.00;89.70;;;;;;5004628;28;112676;-54
2024/02/17 04:48:06;;;;;;;171.00;115.10;;;6.00;89.60;;;;;;5005468;28;112768;-54
2024/02/17 04:50:32;;;;;;;229.55;115.90;;;6.10;89.60;;;;;;5004960;28;112938;-55
2024/02/17 04:52:57;;;;;;;186.20;119.65;;;6.10;89.60;;;;;;5007296;28;114420;-54
2024/02/17 04:55:30;;;;;;;321.23;133.18;;;6.00;89.60;;;;;;5007707;28;112558;-54
2024/02/17 04:57:57;;;;;;;254.40;128.23;;;6.00;89.90;;;;;;5009055;28;114726;-54
2024/02/17 05:00:23;;;;;;;198.60;124.10;;;6.00;90.40;;;;;;5008372;28;112793;-54
2024/02/17 05:02:48;;;;;;;179.73;121.25;;;5.90;90.00;;;;;;5007352;28;114802;-54
2024/02/17 05:05:16;;;;;;;212.40;128.20;;;5.90;90.40;;;;;;5007159;28;112872;-54
2024/02/17 05:07:43;;;;;;;239.88;125.57;;;6.00;89.90;;;;;;5008497;28;112578;-53
2024/02/17 05:10:09;;;;;;;172.65;123.95;;;5.90;89.80;;;;;;5008125;28;113723;-54
2024/02/17 05:12:35;;;;;;;223.73;128.18;;;5.90;90.00;;;;;;5007019;28;115022;-54
2024/02/17 05:15:03;;;;;;;428.13;137.55;;;6.00;90.10;;;;;;5007285;28;114245;-53
2024/02/17 05:17:28;;;;;;;188.65;127.65;;;5.90;90.10;;;;;;5006762;28;112918;-54
2024/02/17 05:19:55;;;;;;;149.35;111.72;;;5.90;90.70;;;;;;5008151;28;113811;-54
2024/02/17 05:22:21;;;;;;;174.27;112.25;;;6.00;90.40;;;;;;5007097;28;113222;-54
2024/02/17 05:24:47;;;;;;;137.35;107.65;;;6.10;89.50;;;;;;5007171;28;112750;-54
2024/02/17 05:27:13;;;;;;;217.30;111.70;;;6.30;88.80;;;;;;5007953;28;112777;-54
2024/02/17 05:29:39;;;;;;;241.65;120.63;;;6.10;88.60;;;;;;5008068;28;112738;-53
2024/02/17 05:32:06;;;;;;;518.10;145.20;;;6.00;89.50;;;;;;5007410;28;113473;-54
2024/02/17 05:34:32;;;;;;;489.67;135.98;;;5.90;89.80;;;;;;5007709;28;112981;-54
2024/02/17 05:36:59;;;;;;;158.30;118.65;;;5.80;90.50;;;;;;5008056;28;112607;-54
2024/02/17 05:39:24;;;;;;;282.92;122.53;;;5.90;90.90;;;;;;5008197;28;112729;-55
2024/02/17 05:41:51;;;;;;;271.88;126.32;;;5.90;90.40;;;;;;5006743;28;114348;-54
2024/02/17 05:44:17;;;;;;;167.02;114.90;;;5.90;90.00;;;;;;5007122;28;112700;-54
2024/02/17 05:46:42;;;;;;;164.73;111.00;;;6.00;90.40;;;;;;5007614;28;112763;-54
2024/02/17 05:49:09;;;;;;;130.45;105.35;;;6.10;89.60;;;;;;5007687;28;112869;-54
2024/02/17 05:51:35;;;;;;;172.00;117.30;;;6.20;89.00;;;;;;5006703;28;114703;-54
2024/02/17 05:54:00;;;;;;;217.82;118.88;;;6.10;89.90;;;;;;5006768;28;113744;-54
2024/02/17 05:56:26;;;;;;;268.90;127.80;;;6.20;89.80;;;;;;5007960;28;112467;-54
2024/02/17 05:58:52;;;;;;;240.25;118.97;;;6.30;89.50;;;;;;5007555;28;113014;-54
2024/02/17 06:01:18;;;;;;;211.98;119.18;;;6.10;90.00;;;;;;5006760;28;114447;-54
2024/02/17 06:03:44;;;;;;;138.55;104.18;;;6.10;89.70;;;;;;5006105;28;112801;-54
2024/02/17 06:06:09;;;;;;;382.35;128.13;;;6.30;89.40;;;;;;5007608;28;112794;-54
2024/02/17 06:08:35;;;;;;;213.40;117.35;;;6.00;89.40;;;;;;5007234;28;113166;-54
2024/02/17 06:11:01;;;;;;;301.95;112.60;;;6.00;89.90;;;;;;5006647;28;113171;-54
2024/02/17 06:13:28;;;;;;;363.25;134.88;;;6.00;90.30;;;;;;5005095;28;114312;-54
2024/02/17 06:15:54;;;;;;;174.40;113.22;;;5.90;90.60;;;;;;5007192;28;112498;-55
2024/02/17 06:21:10;;;;;;;178.57;111.07;;;6.10;89.90;;;;;;5006372;28;113096;-54
2024/02/17 06:23:37;;;;;;;757.30;152.45;;;5.90;90.10;;;;;;5006619;28;114947;-54
2024/02/17 06:26:03;;;;;;;660.78;157.13;;;5.90;90.20;;;;;;5007199;28;112717;-54
2024/02/17 06:28:29;;;;;;;297.35;136.05;;;5.70;90.80;;;;;;5006537;28;112861;-54
2024/02/17 06:30:54;;;;;;;251.82;117.22;;;5.80;91.40;;;;;;5006234;28;113823;-54
2024/02/17 06:33:21;;;;;;;238.25;118.18;;;5.90;91.00;;;;;;5006134;28;113685;-54
2024/02/17 06:35:47;;;;;;;301.98;114.63;;;5.90;90.60;;;;;;5007717;28;112485;-54
2024/02/17 06:38:15;;;;;;;208.93;108.95;;;6.00;89.80;;;;;;5007042;28;112672;-54
2024/02/17 06:40:41;;;;;;;233.32;110.97;;;6.00;89.90;;;;;;5005918;28;114451;-54
2024/02/17 06:43:07;;;;;;;131.02;101.35;;;5.90;89.80;;;;;;5005880;28;112675;-54
2024/02/17 06:45:34;;;;;;;460.98;124.20;;;6.20;89.30;;;;;;5007237;28;112752;-54
2024/02/17 06:48:00;;;;;;;564.08;122.97;;;6.10;88.70;;;;;;5007483;28;112956;-54
2024/02/17 06:50:26;;;;;;;378.85;114.63;;;6.00;89.30;;;;;;5005931;28;113354;-54
2024/02/17 06:52:52;;;;;;;172.07;105.68;;;5.90;89.30;;;;;;5005912;28;112782;-54
2024/02/17 06:55:18;;;;;;;170.25;107.97;;;6.00;89.30;;;;;;5006706;28;112727;-54
2024/02/17 06:57:44;;;;;;;208.63;106.90;;;6.10;89.20;;;;;;5006385;28;113215;-54
2024/02/17 07:00:10;;;;;;;152.65;99.25;;;6.00;89.20;;;;;;5005726;28;113136;-54
2024/02/17 07:02:36;;;;;;;285.35;110.57;;;6.20;88.50;;;;;;5006913;28;113654;-54
2024/02/17 07:05:02;;;;;;;300.10;120.22;;;6.20;88.70;;;;;;5006525;28;112945;-54
2024/02/17 07:07:28;;;;;;;233.30;125.57;;;6.10;89.20;;;;;;5006269;28;113084;-54
2024/02/17 07:09:54;;;;;;;235.48;119.50;;;6.30;89.30;;;;;;5005404;28;113113;-54
2024/02/17 07:12:19;;;;;;;619.03;140.25;;;6.30;89.30;;;;;;5005264;28;113897;-54
2024/02/17 07:14:45;;;;;;;218.70;119.18;;;6.30;89.00;;;;;;5004583;28;112865;-54
2024/02/17 07:17:11;;;;;;;198.38;113.72;;;6.20;89.40;;;;;;5006606;28;112729;-54
2024/02/17 07:19:36;;;;;;;188.98;118.72;;;6.30;89.50;;;;;;5005669;28;113247;-54
2024/02/17 07:22:04;;;;;;;285.83;120.82;;;6.40;88.70;;;;;;5003866;28;114198;-54
2024/02/17 07:24:30;;;;;;;156.05;110.65;;;6.40;88.50;;;;;;5006115;28;112715;-55
2024/02/17 07:26:56;;;;;;;196.63;107.10;;;6.30;88.70;;;;;;5006567;28;112723;-54
2024/02/17 07:29:21;;;;;;;213.40;112.88;;;6.50;88.40;;;;;;5005464;28;113161;-54
2024/02/17 07:31:47;;;;;;;174.90;108.57;;;6.60;88.60;;;;;;5005214;28;112622;-54
2024/02/17 07:34:13;;;;;;;210.35;115.32;;;6.60;88.30;;;;;;5010960;22;112808;-55
2024/02/17 07:36:39;;;;;;;169.23;107.50;;;6.60;88.10;;;;;;4966854;28;112541;-55
2024/02/17 07:39:05;;;;;;;176.55;106.60;;;6.70;88.10;;;;;;4965736;28;114538;-55
2024/02/17 07:41:31;;;;;;;180.15;110.20;;;6.70;87.90;;;;;;4965468;28;114797;-55
2024/02/17 07:43:57;;;;;;;129.50;99.00;;;6.70;87.50;;;;;;4966846;28;112755;-55
2024/02/17 07:46:22;;;;;;;174.02;103.88;;;6.80;87.60;;;;;;4967949;28;112688;-55
2024/02/17 07:48:48;;;;;;;227.95;105.88;;;6.90;87.00;;;;;;4965593;28;113291;-55
2024/02/17 07:51:14;;;;;;;157.77;105.72;;;6.80;87.30;;;;;;4965607;28;112617;-55
2024/02/17 07:53:40;;;;;;;185.52;111.75;;;6.70;88.00;;;;;;4966640;28;112719;-55
2024/02/17 07:56:07;;;;;;;180.13;102.03;;;6.80;87.60;;;;;;4966660;28;112695;-55
2024/02/17 07:58:33;;;;;;;155.18;98.85;;;6.80;87.20;;;;;;4965133;28;114556;-55
2024/02/17 08:00:59;;;;;;;162.38;103.25;;;6.80;87.10;;;;;;4966698;28;112884;-55
2024/02/17 08:03:27;;;;;;;132.45;102.65;;;6.80;87.30;;;;;;4965205;28;112822;-55
2024/02/17 08:05:53;;;;;;;185.57;108.80;;;6.70;87.90;;;;;;4966094;28;112948;-55
2024/02/17 08:08:19;;;;;;;160.77;109.55;;;6.70;88.50;;;;;;4965342;28;114407;-55
2024/02/17 08:10:45;;;;;;;134.57;101.60;;;6.60;88.60;;;;;;4965627;28;113448;-55
2024/02/17 08:13:10;;;;;;;179.35;111.35;;;6.70;88.40;;;;;;4965005;28;112665;-55
2024/02/17 08:15:36;;;;;;;168.63;107.15;;;6.80;88.30;;;;;;4966356;28;112692;-55
2024/02/17 08:18:02;;;;;;;149.13;108.53;;;6.80;88.30;;;;;;4965562;28;113162;-55
2024/02/17 08:20:27;;;;;;;126.60;102.57;;;7.00;88.40;;;;;;4965384;28;113181;-55
2024/02/17 08:22:53;;;;;;;130.23;101.07;;;7.00;88.00;;;;;;4966121;28;113004;-55
2024/02/17 08:25:19;;;;;;;118.95;99.75;;;7.20;87.00;;;;;;4966772;28;112816;-55
2024/02/17 08:27:45;;;;;;;112.18;93.72;;;7.20;87.10;;;;;;4969938;28;114475;-55
2024/02/17 08:30:11;;;;;;;105.53;90.38;;;7.40;86.30;;;;;;4969742;28;112952;-56
2024/02/17 08:32:37;;;;;;;106.95;87.85;;;7.60;85.30;;;;;;4970869;28;112641;-55
2024/02/17 08:35:03;;;;;;;111.60;90.97;;;7.70;84.70;;;;;;4970737;28;112768;-55
2024/02/17 08:37:29;;;;;;;113.15;92.70;;;7.80;84.60;;;;;;4969623;28;113836;-55
2024/02/17 08:39:54;;;;;;;118.28;93.82;;;7.80;84.40;;;;;;4969121;28;112691;-56
2024/02/17 08:42:20;;;;;;;149.07;100.45;;;7.80;84.30;;;;;;4970748;28;112789;-55
2024/02/17 08:44:52;;;;;;;164.63;104.05;;;7.70;84.20;;;;;;4969441;28;112945;-55
2024/02/17 08:47:22;;;;;;;141.05;102.00;;;7.60;84.40;;;;;;4963866;28;113252;-56
2024/02/17 08:49:48;;;;;;;123.95;97.68;;;7.50;84.90;;;;;;4968245;28;114005;-55
2024/02/17 08:52:14;;;;;;;118.65;95.93;;;7.60;85.20;;;;;;4960673;28;112659;-55
2024/02/17 08:54:40;;;;;;;116.78;94.60;;;7.80;84.30;;;;;;4955784;28;112862;-55
2024/02/17 08:57:06;;;;;;;119.32;98.13;;;7.70;84.40;;;;;;4956631;28;113209;-55
2024/02/17 08:59:32;;;;;;;127.72;100.25;;;7.90;83.60;;;;;;4957346;28;112781;-55
2024/02/17 09:01:57;;;;;;;120.55;97.00;;;8.00;83.10;;;;;;4968949;28;113038;-55
2024/02/17 09:04:23;;;;;;;113.00;95.47;;;8.10;82.70;;;;;;4969884;28;113188;-55
2024/02/17 09:06:49;;;;;;;124.10;95.03;;;8.30;82.60;;;;;;4968970;28;113165;-55
2024/02/17 09:09:16;;;;;;;124.15;91.97;;;8.60;81.80;;;;;;4969135;28;112924;-55
2024/02/17 09:11:42;;;;;;;118.78;95.40;;;8.80;80.50;;;;;;4970279;28;112596;-55
2024/02/17 09:14:08;;;;;;;173.90;97.60;;;8.70;80.70;;;;;;4969891;28;112789;-55
2024/02/17 09:16:33;;;;;;;118.35;95.88;;;8.50;80.90;;;;;;4969140;28;113385;-55
2024/02/17 09:18:59;;;;;;;130.93;102.45;;;8.20;82.30;;;;;;4968919;28;112712;-55
2024/02/17 09:21:25;;;;;;;141.55;115.82;;;8.10;83.20;;;;;;4967144;28;112658;-56
2024/02/17 09:23:50;;;;;;;170.63;105.35;;;8.60;82.20;;;;;;4968948;28;112665;-55
2024/02/17 09:26:16;;;;;;;128.57;97.57;;;8.60;81.90;;;;;;4967120;28;113365;-55
2024/02/17 09:28:42;;;;;;;114.00;95.10;;;8.70;82.00;;;;;;4968961;28;112805;-55
2024/02/17 09:31:07;;;;;;;126.35;96.07;;;9.00;80.50;;;;;;4969717;28;112808;-55
2024/02/17 09:33:33;;;;;;;121.05;99.07;;;9.00;80.10;;;;;;4969507;28;112888;-55
2024/02/17 09:35:59;;;;;;;150.70;102.75;;;9.00;81.00;;;;;;4968005;28;114526;-55
2024/02/17 09:38:25;;;;;;;143.55;101.43;;;8.80;81.50;;;;;;4965401;28;113879;-55
2024/02/17 09:40:54;;;;;;;196.65;105.68;;;8.80;81.60;;;;;;4968049;28;112594;-55
2024/02/17 09:43:20;;;;;;;130.02;102.82;;;8.90;81.10;;;;;;4968534;28;112761;-55
2024/02/17 09:45:46;;;;;;;126.90;104.40;;;8.80;81.60;;;;;;4967410;28;114442;-55
2024/02/17 09:48:13;;;;;;;135.07;102.03;;;9.00;81.70;;;;;;4966993;28;112677;-55
2024/02/17 09:50:40;;;;;;;146.68;104.18;;;8.90;81.70;;;;;;4967879;28;112970;-55
2024/02/17 09:53:08;;;;;;;155.57;106.63;;;8.80;82.10;;;;;;4965445;28;112758;-56
2024/02/17 09:55:36;;;;;;;143.05;111.00;;;8.90;82.40;;;;;;4957400;28;114045;-55
2024/02/17 09:58:02;;;;;;;177.35;116.80;;;8.70;83.00;;;;;;4965838;28;112602;-55
2024/02/17 10:00:28;;;;;;;195.57;122.40;;;8.40;83.40;;;;;;4963721;28;113250;-55
2024/02/17 10:02:54;;;;;;;165.50;111.32;;;8.60;83.40;;;;;;4957854;28;112694;-54
2024/02/17 10:05:27;;;;;;;139.13;106.28;;;8.70;83.10;;;;;;4966639;28;113771;-55
2024/02/17 10:07:53;;;;;;;210.48;108.75;;;9.10;81.70;;;;;;4966936;28;113927;-55
2024/02/17 10:10:21;;;;;;;133.25;108.45;;;9.40;80.50;;;;;;4967734;28;112661;-55
2024/02/17 10:12:54;;;;;;;127.45;102.13;;;9.70;80.30;;;;;;4967759;28;112702;-55
2024/02/17 10:15:22;;;;;;;129.70;104.38;;;9.80;79.70;;;;;;4966837;28;114584;-55
2024/02/17 10:17:49;;;;;;;124.65;101.25;;;10.10;78.60;;;;;;4966662;28;112577;-55
2024/02/17 10:20:15;;;;;;;130.18;105.85;;;10.60;77.90;;;;;;4967783;28;112571;-55
2024/02/17 10:22:45;;;;;;;124.88;103.30;;;10.40;77.30;;;;;;4967792;28;112955;-55
2024/02/17 10:25:12;;;;;;;129.60;105.07;;;10.30;77.90;;;;;;4966613;28;113713;-55
2024/02/17 10:27:42;;;;;;;120.35;101.25;;;10.50;76.80;;;;;;4966712;28;112830;-55
2024/02/17 10:30:21;;;;;;;125.70;104.05;;;11.10;76.70;;;;;;4967256;28;112669;-55
2024/02/17 10:32:47;;;;;;;129.95;105.40;;;11.00;76.00;;;;;;4957608;28;112695;-55
2024/02/17 10:35:14;;;;;;;123.45;102.72;;;11.20;75.50;;;;;;4965387;28;114575;-55
2024/02/17 10:37:40;;;;;;;134.75;109.30;;;11.10;76.40;;;;;;4966266;28;113613;-55
2024/02/17 10:40:08;;;;;;;126.38;106.80;;;11.10;75.70;;;;;;4967503;28;112912;-55
2024/02/17 10:42:34;;;;;;;125.00;107.38;;;11.30;74.50;;;;;;4966813;28;112709;-55
2024/02/17 10:45:00;;;;;;;130.57;107.50;;;11.00;75.30;;;;;;4966012;28;114412;-55
2024/02/17 10:47:36;;;;;;;130.02;108.85;;;11.20;75.50;;;;;;4966255;28;112994;-55
2024/02/17 10:50:14;;;;;;;127.63;107.75;;;11.50;75.00;;;;;;4961749;28;112750;-55
2024/02/17 10:52:44;;;;;;;163.52;108.85;;;11.60;74.70;;;;;;4967332;28;112814;-55
2024/02/17 10:55:12;;;;;;;148.88;116.60;;;11.50;74.30;;;;;;4961878;28;113517;-55
2024/02/17 10:57:56;;;;;;;137.98;113.53;;;11.00;75.80;;;;;;4966249;28;113895;-55
2024/02/17 11:00:23;;;;;;;134.88;114.25;;;11.30;75.60;;;;;;4963491;28;112583;-55
2024/02/17 11:02:54;;;;;;;170.07;115.93;;;11.20;76.10;;;;;;4967127;28;112786;-55
2024/02/17 11:05:20;;;;;;;167.52;122.38;;;11.30;75.60;;;;;;4966059;28;113274;-55
2024/02/17 11:07:47;;;;;;;153.20;122.20;;;11.00;76.10;;;;;;4966258;28;113044;-55
2024/02/17 11:10:14;;;;;;;155.50;126.32;;;10.50;78.10;;;;;;4966851;28;112672;-55
2024/02/17 11:12:47;;;;;;;158.52;129.48;;;10.60;78.00;;;;;;4967105;28;113332;-55
2024/02/17 11:15:12;;;;;;;;;;;10.40;78.60;;;;;;4966559;28;113161;-55
2024/02/17 11:17:44;;;;;;;158.52;125.53;;;10.40;78.20;;;;;;4969502;28;112947;-55
2024/02/17 11:20:15;;;;;;;159.93;129.85;;;10.70;78.20;;;;;;4966680;28;112851;-55
2024/02/17 11:22:47;;;;;;;156.63;126.55;;;10.70;78.60;;;;;;4965352;28;112750;-55
2024/02/17 11:25:23;;;;;;;151.80;125.47;;;11.00;77.50;;;;;;4965915;28;113835;-55
2024/02/17 11:27:48;;;;;;;145.70;121.15;;;11.80;75.50;;;;;;4965681;28;114123;-55
2024/02/17 11:30:18;;;;;;;138.30;117.57;;;12.30;73.70;;;;;;4966875;28;112863;-55
2024/02/17 11:32:44;;;;;;;136.73;117.90;;;12.50;72.50;;;;;;4966440;28;112707;-55
2024/02/17 11:35:11;;;;;;;134.43;116.82;;;12.90;72.00;;;;;;4965709;28;113416;-55
2024/02/17 11:37:39;;;;;;;127.60;113.80;;;13.80;69.30;;;;;;4965919;28;112810;-55
2024/02/17 11:40:07;;;;;;;115.45;103.38;;;16.60;62.20;;;;;;4966688;28;112706;-56
2024/02/17 11:42:33;;;;;;;107.55;96.78;;;22.40;47.30;;;;;;4966600;28;112796;-56
2024/02/17 11:45:00;;;;;;;107.75;95.78;;;23.90;44.70;;;;;;4966666;28;115124;-56
2024/02/17 11:47:30;;;;;;;99.85;90.57;;;26.30;40.40;;;;;;4966895;28;113790;-57
2024/02/17 11:50:08;;;;;;;106.03;96.40;;;26.10;39.30;;;;;;4967688;28;112480;-57
2024/02/17 11:52:34;;;;;;;108.75;99.35;;;26.70;38.60;;;;;;4968035;28;112735;-57
2024/02/17 11:55:00;;;;;;;112.95;103.32;;;28.40;36.70;;;;;;4966574;28;113286;-57
2024/02/17 11:57:29;;;;;;;110.07;100.78;;;29.20;33.50;;;;;;4965880;28;112858;-55
2024/02/17 11:59:54;;;;;;;105.20;96.53;;;29.70;33.70;;;;;;4965684;28;112591;-55
2024/02/17 12:02:20;;;;;;;109.78;100.63;;;30.00;33.60;;;;;;4967745;28;113055;-55
2024/02/17 12:04:46;;;;;;;109.60;100.50;;;28.90;33.90;;;;;;4965778;28;113309;-55
2024/02/17 12:07:12;;;;;;;108.97;99.90;;;29.90;33.90;;;;;;4965252;28;113723;-55